Time;durP1;ratioP1;P1;durP2;ratioP2;P2;SDS_P1;SDS_P2;PMS_P1;PMS_P2;Temp;Humidity;BMP_temperature;BMP_pressure;BME280_temperature;BME280_humidity;BME280_pressure;Samples;Min_cycle;Max_cycle;Signal;HPM_P1;HPM_P2
2021/09/15 00:00:40;;;;;;;10.50;6.53;;;;;;;16.94;100.00;96659.28;5071704;28;20238;-78
2021/09/15 00:03:07;;;;;;;11.60;6.43;;;;;;;16.75;100.00;96645.59;5071641;28;20236;-78
2021/09/15 00:05:34;;;;;;;6.43;5.93;;;;;;;17.14;100.00;96648.84;5072014;28;20218;-78
2021/09/15 00:08:01;;;;;;;11.13;7.40;;;;;;;17.26;100.00;96653.47;5071369;28;20204;-79
2021/09/15 00:10:30;;;;;;;10.87;6.03;;;;;;;17.27;100.00;96649.78;5071876;28;20197;-78
2021/09/15 00:12:58;;;;;;;7.13;6.47;;;;;;;17.13;100.00;96652.53;5071826;28;20207;-78
2021/09/15 00:15:25;;;;;;;7.00;6.17;;;;;;;17.21;100.00;96647.88;5071395;28;20230;-78
2021/09/15 00:17:52;;;;;;;9.73;6.27;;;;;;;17.32;100.00;96646.59;5071486;28;20193;-78
2021/09/15 00:20:19;;;;;;;10.67;6.53;;;;;;;17.21;100.00;96647.88;5071483;28;20223;-78
2021/09/15 00:22:46;;;;;;;8.13;6.13;;;;;;;17.30;100.00;96646.75;5075708;28;20204;-78
2021/09/15 00:25:14;;;;;;;7.07;6.47;;;;;;;17.16;100.00;96649.50;5075286;28;20211;-78
2021/09/15 00:27:42;;;;;;;16.17;6.97;;;;;;;17.01;100.00;96644.25;5075286;28;20204;-78
2021/09/15 00:30:11;;;;;;;14.53;5.80;;;;;;;17.08;100.00;96648.63;5075161;28;20785;-78
2021/09/15 00:32:38;;;;;;;12.23;7.00;;;;;;;16.90;100.00;96644.72;5075417;28;20210;-78
2021/09/15 00:35:09;;;;;;;8.50;6.43;;;;;;;16.66;100.00;96636.13;5075378;28;20371;-78
2021/09/15 00:37:36;;;;;;;11.53;7.03;;;;;;;16.73;100.00;96638.81;5075137;28;20214;-78
2021/09/15 00:40:04;;;;;;;8.17;6.40;;;;;;;16.31;100.00;96633.22;5075172;28;20235;-78
2021/09/15 00:42:31;;;;;;;8.87;6.60;;;;;;;16.10;100.00;96633.16;5074951;28;20196;-78
2021/09/15 00:45:00;;;;;;;8.17;7.37;;;;;;;16.52;100.00;96629.84;5075142;28;20203;-78
2021/09/15 00:47:27;;;;;;;9.50;6.80;;;;;;;16.68;100.00;96627.94;5075064;28;20199;-79
2021/09/15 00:49:54;;;;;;;9.07;6.67;;;;;;;16.73;100.00;96633.50;5074950;28;20207;-78
2021/09/15 00:52:22;;;;;;;7.43;6.73;;;;;;;16.76;100.00;96636.63;5074921;28;20196;-78
2021/09/15 00:54:50;;;;;;;7.87;7.00;;;;;;;16.79;100.00;96625.63;5075142;28;20234;-78
2021/09/15 00:57:17;;;;;;;7.67;6.90;;;;;;;16.63;100.00;96631.16;5074675;28;20285;-78
2021/09/15 00:59:44;;;;;;;10.20;6.63;;;;;;;16.71;100.00;96631.03;5074604;28;20223;-78
2021/09/15 01:02:13;;;;;;;12.20;6.80;;;;;;;16.65;100.00;96626.47;5074817;28;20675;-78
2021/09/15 01:04:40;;;;;;;7.97;6.93;;;;;;;16.63;100.00;96625.88;5074595;28;20207;-78
2021/09/15 01:07:07;;;;;;;8.50;7.53;;;;;;;16.57;100.00;96621.31;5074482;28;20588;-78
2021/09/15 01:09:37;;;;;;;11.10;7.57;;;;;;;16.50;100.00;96620.41;5074556;28;20231;-78
2021/09/15 01:12:06;;;;;;;8.47;7.20;;;;;;;16.65;100.00;96626.47;5074580;28;20204;-78
2021/09/15 01:14:34;;;;;;;6.87;6.27;;;;;;;16.57;100.00;96631.91;5074215;28;20295;-78
2021/09/15 01:17:02;;;;;;;8.13;6.60;;;;;;;16.57;100.00;96624.78;5074605;28;20232;-78
2021/09/15 01:19:31;;;;;;;9.33;7.10;;;;;;;16.64;100.00;96627.50;5074270;28;20279;-78
2021/09/15 01:22:00;;;;;;;7.37;6.73;;;;;;;16.58;100.00;96614.97;5074789;28;20203;-78
2021/09/15 01:24:29;;;;;;;8.30;7.50;;;;;;;16.52;100.00;96619.22;5074036;28;20204;-78
2021/09/15 01:26:57;;;;;;;12.30;7.50;;;;;;;16.49;100.00;96627.56;5074392;28;20485;-78
2021/09/15 01:29:28;;;;;;;7.83;6.80;;;;;;;16.48;100.00;96611.81;5074109;28;20210;-78
2021/09/15 01:32:00;;;;;;;7.73;6.93;;;;;;;16.58;100.00;96620.28;5073941;28;20187;-78
2021/09/15 01:34:28;;;;;;;7.90;7.10;;;;;;;16.50;100.00;96615.09;5073789;28;20309;-78
2021/09/15 01:36:55;;;;;;;6.97;6.37;;;;;;;16.43;100.00;96620.34;5074202;28;20211;-78
2021/09/15 01:39:24;;;;;;;10.97;7.30;;;;;;;16.54;100.00;96622.50;5074242;28;20228;-78
2021/09/15 01:41:51;;;;;;;7.70;7.00;;;;;;;16.48;100.00;96620.56;5074072;28;20203;-79
2021/09/15 01:44:19;;;;;;;9.83;7.13;;;;;;;16.52;100.00;96618.38;5073658;28;20290;-78
2021/09/15 01:46:46;;;;;;;11.03;7.70;;;;;;;16.40;100.00;96623.34;5074039;28;20199;-79
2021/09/15 01:49:13;;;;;;;9.40;6.50;;;;;;;16.39;100.00;96629.69;5073805;28;20192;-78
2021/09/15 01:51:43;;;;;;;7.90;6.70;;;;;;;16.25;100.00;96625.22;5073995;28;20211;-77
2021/09/15 01:54:10;;;;;;;6.37;5.83;;;;;;;16.21;100.00;96621.28;5073679;28;20751;-78
2021/09/15 01:56:39;;;;;;;9.63;7.03;;;;;;;16.20;100.00;96625.75;5073799;28;20206;-78
2021/09/15 01:59:06;;;;;;;8.97;6.90;;;;;;;16.51;100.00;96637.97;5073407;28;20671;-78
2021/09/15 02:01:33;;;;;;;7.57;6.87;;;;;;;16.80;100.00;96643.22;5073700;28;20196;-78
2021/09/15 02:04:00;;;;;;;7.63;5.83;;;;;;;16.89;100.00;96643.91;5073512;28;20282;-78
2021/09/15 02:06:28;;;;;;;7.23;6.53;;;;;;;16.94;100.00;96643.34;5073657;28;20629;-78
2021/09/15 02:08:55;;;;;;;7.57;6.67;;;;;;;16.97;100.00;96638.50;5073769;28;20285;-78
2021/09/15 02:11:22;;;;;;;7.00;6.30;;;;;;;17.01;100.00;96647.72;5073378;28;20198;-78
2021/09/15 02:13:51;;;;;;;6.70;6.10;;;;;;;16.99;100.00;96648.91;5073614;28;20639;-78
2021/09/15 02:16:18;;;;;;;7.70;6.70;;;;;;;17.09;100.00;96647.59;5073774;28;20203;-78
2021/09/15 02:18:45;;;;;;;7.37;6.67;;;;;;;17.11;100.00;96655.34;5073167;28;20202;-78
2021/09/15 02:21:12;;;;;;;7.60;6.60;;;;;;;17.03;100.00;96639.56;5072990;28;20314;-78
2021/09/15 02:23:40;;;;;;;7.90;6.13;;;;;;;17.02;100.00;96641.41;5073113;28;20210;-78
2021/09/15 02:26:07;;;;;;;8.90;6.60;;;;;;;17.07;100.00;96646.13;5073230;28;20240;-78
2021/09/15 02:28:34;;;;;;;10.10;8.07;;;;;;;17.05;100.00;96646.34;5072714;28;20579;-78
2021/09/15 02:31:03;;;;;;;8.77;7.93;;;;;;;16.98;100.00;96649.94;5073079;28;20669;-79
2021/09/15 02:33:30;;;;;;;9.83;8.10;;;;;;;16.96;100.00;96643.97;5073193;28;20254;-78
2021/09/15 02:35:58;;;;;;;8.80;7.43;;;;;;;16.94;100.00;96643.34;5073043;28;20293;-78
2021/09/15 02:38:25;;;;;;;8.60;7.43;;;;;;;16.96;100.00;96646.63;5072538;28;20291;-78
2021/09/15 02:40:52;;;;;;;9.90;8.67;;;;;;;16.90;100.00;96653.50;5073197;28;20594;-78
2021/09/15 02:43:19;;;;;;;9.50;7.57;;;;;;;16.97;100.00;96653.59;5072585;28;20296;-78
2021/09/15 02:45:47;;;;;;;12.83;9.30;;;;;;;16.96;100.00;96654.59;5072770;28;20231;-79
2021/09/15 02:48:16;;;;;;;13.90;9.33;;;;;;;16.98;100.00;96655.25;5072775;28;20203;-78
2021/09/15 02:50:43;;;;;;;10.53;9.27;;;;;;;16.93;100.00;96658.44;5072669;28;20287;-78
2021/09/15 02:53:10;;;;;;;11.17;8.63;;;;;;;16.90;100.00;96660.66;5072867;28;20215;-78
2021/09/15 02:55:38;;;;;;;7.37;6.67;;;;;;;16.75;100.00;96650.91;5072552;28;20198;-78
2021/09/15 02:58:06;;;;;;;12.03;7.80;;;;;;;16.78;100.00;96655.84;5072205;28;20210;-78
2021/09/15 03:00:34;;;;;;;7.40;5.93;;;;;;;16.36;100.00;96652.09;5072746;28;20651;-78
2021/09/15 03:03:02;;;;;;;8.63;6.87;;;;;;;16.26;100.00;96648.88;5072307;28;20205;-78
2021/09/15 03:05:31;;;;;;;11.20;6.60;;;;;;;16.31;100.00;96649.16;5072779;28;20286;-78
2021/09/15 03:07:59;;;;;;;7.73;6.67;;;;;;;16.16;100.00;96646.50;5072066;28;20199;-78
2021/09/15 03:10:27;;;;;;;7.57;6.87;;;;;;;15.82;100.00;96647.06;5072476;28;20196;-78
2021/09/15 03:12:54;;;;;;;8.87;6.63;;;;;;;15.84;100.00;96647.72;5072180;28;20205;-78
2021/09/15 03:15:21;;;;;;;7.87;7.07;;;;;;;15.72;100.00;96653.63;5072242;28;20205;-77
2021/09/15 03:17:49;;;;;;;7.37;6.60;;;;;;;16.01;100.00;96653.66;5072193;28;20282;-78
2021/09/15 03:20:16;;;;;;;11.63;7.13;;;;;;;15.95;100.00;96653.56;5072090;28;20256;-78
2021/09/15 03:22:45;;;;;;;7.67;6.90;;;;;;;16.20;100.00;96657.56;5071983;28;20735;-77
2021/09/15 03:25:12;;;;;;;8.90;7.03;;;;;;;16.14;100.00;96667.09;5071938;28;20202;-78
2021/09/15 03:27:39;;;;;;;7.63;6.43;;;;;;;15.79;100.00;96663.31;5071854;28;20623;-77
2021/09/15 03:30:08;;;;;;;8.00;7.13;;;;;;;15.46;100.00;96660.97;5071830;28;20235;-77
2021/09/15 03:32:35;;;;;;;10.20;6.97;;;;;;;15.65;100.00;96658.81;5071803;28;20283;-77
2021/09/15 03:35:03;;;;;;;13.60;7.40;;;;;;;15.73;100.00;96658.78;5071779;28;20199;-78
2021/09/15 03:37:30;;;;;;;7.20;6.50;;;;;;;15.96;100.00;96663.16;5071783;28;20307;-78
2021/09/15 03:39:59;;;;;;;8.80;7.93;;;;;;;16.08;100.00;96670.50;5071904;28;20231;-78
2021/09/15 03:42:26;;;;;;;11.10;6.77;;;;;;;16.07;100.00;96665.34;5071720;28;20674;-77
2021/09/15 03:44:53;;;;;;;7.60;6.87;;;;;;;15.86;100.00;96672.22;5071818;28;20280;-78
2021/09/15 03:47:21;;;;;;;8.20;7.17;;;;;;;15.62;100.00;96669.75;5071472;28;20198;-77
2021/09/15 03:49:48;;;;;;;14.87;7.20;;;;;;;15.69;100.00;96663.63;5072086;28;20284;-77
2021/09/15 03:52:15;;;;;;;9.80;8.27;;;;;;;15.57;100.00;96667.66;5071760;28;20290;-77
2021/09/15 03:54:44;;;;;;;9.03;7.27;;;;;;;15.71;100.00;96673.19;5071650;28;20280;-77
2021/09/15 03:57:13;;;;;;;15.47;7.83;;;;;;;15.76;100.00;96663.72;5086801;28;20244;-78
2021/09/15 03:59:41;;;;;;;9.20;6.43;;;;;;;15.76;100.00;96663.72;5092019;28;20199;-78
2021/09/15 04:02:08;;;;;;;14.93;8.20;;;;;;;15.83;100.00;96663.78;5091475;28;20286;-77
2021/09/15 04:04:37;;;;;;;13.33;6.80;;;;;;;15.85;100.00;96665.25;5091248;28;20196;-77
2021/09/15 04:07:04;;;;;;;9.67;7.40;;;;;;;15.68;100.00;96667.25;5091658;28;20199;-77
2021/09/15 04:09:32;;;;;;;10.43;7.80;;;;;;;15.84;100.00;96668.94;5091326;28;20192;-77
2021/09/15 04:11:59;;;;;;;8.87;7.20;;;;;;;15.71;100.00;96671.38;5091484;28;20229;-77
2021/09/15 04:14:28;;;;;;;11.13;6.97;;;;;;;15.66;100.00;96668.47;5091345;28;20240;-78
2021/09/15 04:16:55;;;;;;;11.50;7.60;;;;;;;15.74;100.00;96673.66;5091759;28;20197;-78
2021/09/15 04:19:22;;;;;;;10.67;6.97;;;;;;;15.74;100.00;96678.97;5091665;28;20277;-78
2021/09/15 04:21:49;;;;;;;7.73;6.37;;;;;;;15.61;100.00;96684.84;5092010;28;20221;-78
2021/09/15 04:24:39;;;;;;;11.00;7.10;;;;;;;15.57;100.00;96685.38;5078704;28;20241;-77
2021/09/15 04:32:37;;;;;;;8.40;6.90;;;;;;;15.91;100.00;96690.22;5091491;28;20238;-77
2021/09/15 04:35:05;;;;;;;8.40;7.53;;;;;;;15.83;100.00;96691.16;5091549;28;20209;-78
2021/09/15 04:37:32;;;;;;;8.03;7.23;;;;;;;15.81;100.00;96689.66;5091394;28;20201;-77
2021/09/15 04:39:59;;;;;;;10.10;7.00;;;;;;;15.87;100.00;96687.13;5091275;28;20203;-77
2021/09/15 04:42:27;;;;;;;8.33;6.10;;;;;;;16.05;100.00;96694.72;5091291;28;20205;-77
2021/09/15 04:44:55;;;;;;;11.07;6.80;;;;;;;15.98;100.00;96698.28;5091409;28;20197;-78
2021/09/15 04:47:22;;;;;;;7.90;7.10;;;;;;;15.93;100.00;96702.31;5091562;28;20204;-77
2021/09/15 04:49:49;;;;;;;8.03;7.17;;;;;;;15.94;100.00;96695.16;5091439;28;20221;-77
2021/09/15 04:52:17;;;;;;;8.97;7.53;;;;;;;15.88;100.00;96702.00;5091657;28;20208;-77
2021/09/15 04:54:44;;;;;;;8.63;6.67;;;;;;;15.67;100.00;96701.88;5091357;28;20204;-77
2021/09/15 04:57:11;;;;;;;10.07;7.57;;;;;;;15.71;100.00;96702.34;5091377;28;20205;-78
2021/09/15 04:59:38;;;;;;;8.97;8.07;;;;;;;15.62;100.00;96701.56;5091020;28;20202;-78
2021/09/15 05:02:07;;;;;;;13.57;8.17;;;;;;;15.83;100.00;96693.78;5091632;28;20310;-78
2021/09/15 05:04:34;;;;;;;8.37;7.50;;;;;;;16.06;100.00;96693.69;5091087;28;20201;-78
2021/09/15 05:07:01;;;;;;;8.60;7.43;;;;;;;16.08;100.00;96697.00;5091300;28;20267;-78
2021/09/15 05:09:28;;;;;;;8.23;7.30;;;;;;;16.10;100.00;96697.63;5094182;28;20212;-79
2021/09/15 05:11:55;;;;;;;13.37;6.47;;;;;;;16.29;100.00;96696.28;5094892;28;20206;-78
2021/09/15 05:14:22;;;;;;;10.70;8.77;;;;;;;16.34;100.00;96701.84;5094931;28;20584;-78
2021/09/15 05:16:50;;;;;;;13.40;10.07;;;;;;;16.38;100.00;96702.28;5095123;28;20197;-77
2021/09/15 05:19:18;;;;;;;22.60;12.60;;;;;;;16.39;100.00;96709.25;5094419;28;20191;-77
2021/09/15 05:21:46;;;;;;;14.97;12.80;;;;;;;16.48;100.00;96709.97;5094645;28;20313;-78
2021/09/15 05:24:13;;;;;;;12.67;8.70;;;;;;;16.39;100.00;96704.78;5091502;28;20199;-77
2021/09/15 05:26:40;;;;;;;14.70;7.47;;;;;;;16.23;100.00;96707.59;5083257;28;20692;-77
2021/09/15 05:29:07;;;;;;;12.43;7.93;;;;;;;16.34;100.00;96704.47;5073872;28;20204;-77
2021/09/15 05:31:34;;;;;;;16.50;8.37;;;;;;;16.35;100.00;96703.50;5074077;28;20230;-77
2021/09/15 05:34:02;;;;;;;16.93;9.30;;;;;;;16.36;100.00;96702.47;5074032;28;20206;-77
2021/09/15 05:36:30;;;;;;;11.43;7.87;;;;;;;16.41;100.00;96708.03;5074476;28;20253;-77
2021/09/15 05:38:58;;;;;;;21.57;7.97;;;;;;;16.68;100.00;96708.38;5071857;28;21013;-79
2021/09/15 05:41:25;;;;;;;9.37;7.20;;;;;;;17.07;100.00;96716.00;5093815;28;20225;-78
2021/09/15 05:43:52;;;;;;;12.07;6.53;;;;;;;17.30;100.00;96726.44;5094371;28;20401;-77
2021/09/15 05:46:19;;;;;;;6.97;6.37;;;;;;;17.50;100.00;96723.16;5094185;28;20203;-78
2021/09/15 05:48:46;;;;;;;7.43;6.57;;;;;;;17.65;100.00;96723.91;5093705;28;20198;-77
2021/09/15 05:51:13;;;;;;;13.97;7.03;;;;;;;17.83;100.00;96726.94;5094140;28;20192;-78
2021/09/15 05:53:42;;;;;;;8.30;6.83;;;;;;;17.97;100.00;96727.03;5094183;28;20201;-78
2021/09/15 05:56:09;;;;;;;7.80;5.90;;;;;;;18.18;100.00;96732.28;5094339;28;20200;-78
2021/09/15 05:58:36;;;;;;;7.77;5.97;;;;;;;18.26;100.00;96729.50;5093794;28;20690;-78
2021/09/15 06:01:06;;;;;;;9.43;5.70;;;;;;;18.41;100.00;96742.69;5093947;28;20581;-78
2021/09/15 06:03:33;;;;;;;8.47;6.73;;;;;;;18.60;100.00;96738.50;5093648;28;20226;-78
2021/09/15 06:06:00;;;;;;;7.43;6.73;;;;;;;18.71;100.00;96740.63;5093843;28;20206;-78
2021/09/15 06:08:27;;;;;;;6.70;6.10;;;;;;;18.83;100.00;96738.19;5093610;28;20614;-78
2021/09/15 06:10:56;;;;;;;6.97;6.07;;;;;;;18.95;100.00;96738.47;5093594;28;20664;-78
2021/09/15 06:13:24;;;;;;;7.23;6.30;;;;;;;19.16;100.00;96745.50;5093746;28;20655;-78
2021/09/15 06:15:51;;;;;;;8.13;6.73;;;;;;;19.21;100.00;96743.03;5093952;28;20223;-78
2021/09/15 06:18:18;;;;;;;7.10;6.27;;;;;;;19.38;100.00;96749.63;5093009;28;20200;-78
2021/09/15 06:20:45;;;;;;;8.83;6.57;;;;;;;19.57;100.00;96752.53;5093552;28;20224;-78
2021/09/15 06:23:12;;;;;;;11.33;6.70;;;;;;;19.75;100.00;96754.66;5093566;28;20366;-78
2021/09/15 06:25:41;;;;;;;11.43;6.70;;;;;;;19.87;100.00;96758.34;5093793;28;20231;-78
2021/09/15 06:28:12;;;;;;;12.00;5.97;;;;;;;19.95;100.00;96758.13;5093509;28;20579;-78
2021/09/15 06:30:41;;;;;;;6.90;6.20;;;;;;;20.03;100.00;96763.25;5093143;28;20251;-78
2021/09/15 06:33:08;;;;;;;7.83;6.73;;;;;;;20.18;100.00;96755.03;5093134;28;20580;-78
2021/09/15 06:35:36;;;;;;;7.37;6.60;;;;;;;20.24;100.00;96761.41;5093596;28;20200;-78
2021/09/15 06:38:03;;;;;;;9.13;7.53;;;;;;;20.39;100.00;96760.13;5093338;28;20210;-78
2021/09/15 06:40:30;;;;;;;9.83;6.20;;;;;;;20.53;100.00;96763.63;5093081;28;20198;-78
2021/09/15 06:42:57;;;;;;;8.87;6.40;;;;;;;20.61;100.00;96766.09;5092982;28;20196;-78
2021/09/15 06:45:26;;;;;;;9.10;6.23;;;;;;;20.79;100.00;96762.75;5093406;28;20203;-78
2021/09/15 06:47:53;;;;;;;12.13;8.00;;;;;;;20.92;100.00;96763.69;5092756;28;20700;-78
2021/09/15 06:50:20;;;;;;;10.47;7.50;;;;;;;20.89;100.00;96770.31;5092810;28;20704;-78
2021/09/15 06:52:47;;;;;;;11.63;7.13;;;;;;;20.82;100.00;96766.84;5092723;28;20748;-78
2021/09/15 06:55:15;;;;;;;7.00;6.30;;;;;;;20.65;100.00;96767.31;5093357;28;20196;-78
2021/09/15 06:57:42;;;;;;;11.67;7.07;;;;;;;20.65;100.00;96767.31;5092834;28;20246;-78
2021/09/15 07:00:12;;;;;;;8.90;7.90;;;;;;;20.72;100.00;96769.94;5092828;28;20289;-78
2021/09/15 07:02:40;;;;;;;7.27;6.67;;;;;;;20.72;100.00;96772.63;5092594;28;20228;-78
2021/09/15 07:05:08;;;;;;;8.80;6.63;;;;;;;20.75;100.00;96772.22;5092745;28;20576;-78
2021/09/15 07:07:35;;;;;;;9.03;7.30;;;;;;;20.83;100.00;96769.28;5092649;28;20716;-79
2021/09/15 07:10:03;;;;;;;6.90;6.10;;;;;;;20.86;100.00;96768.06;5092708;28;20578;-78
2021/09/15 07:12:30;;;;;;;12.53;6.77;;;;;;;20.94;100.00;96767.00;5092889;28;20295;-78
2021/09/15 07:14:58;;;;;;;13.47;6.90;;;;;;;20.86;100.00;96768.06;5092897;28;20279;-78
2021/09/15 07:17:25;;;;;;;17.07;6.73;;;;;;;21.40;100.00;96774.00;5092542;28;20196;-78
2021/09/15 07:19:54;;;;;;;13.03;6.33;;;;;;;21.80;100.00;96774.56;5092328;28;20228;-78
2021/09/15 07:22:21;;;;;;;6.77;5.70;;;;;;;21.86;100.00;96781.72;5092546;28;20251;-78
2021/09/15 07:24:48;;;;;;;7.17;6.40;;;;;;;22.27;100.00;96785.72;5092822;28;20279;-78
2021/09/15 07:27:15;;;;;;;8.83;5.97;;;;;;;22.42;100.00;96786.22;5092308;28;20686;-78
2021/09/15 07:29:42;;;;;;;8.27;6.33;;;;;;;22.56;100.00;96789.59;5091552;28;20199;-79
2021/09/15 07:32:09;;;;;;;13.17;6.80;;;;;;;22.85;100.00;96792.56;5092029;28;20185;-78
2021/09/15 07:34:39;;;;;;;11.23;6.17;;;;;;;22.96;100.00;96789.16;5092468;28;20193;-78
2021/09/15 07:37:08;;;;;;;8.60;6.30;;;;;;;23.40;100.00;96787.19;5092221;28;20192;-78
2021/09/15 07:39:35;;;;;;;6.93;6.20;;;;;;;23.53;100.00;96778.97;5092273;28;20196;-79
2021/09/15 07:42:02;;;;;;;9.37;6.03;;;;;;;23.66;100.00;96784.13;5092247;28;20224;-79
2021/09/15 07:44:29;;;;;;;6.83;6.23;;;;;;;23.67;100.00;96780.44;5092241;28;20257;-78
2021/09/15 07:46:56;;;;;;;13.03;6.93;;;;;;;23.88;100.00;96780.97;5092113;28;20290;-78
2021/09/15 07:49:24;;;;;;;15.57;6.57;;;;;;;24.17;100.00;96789.97;5092156;28;20335;-78
2021/09/15 07:51:51;;;;;;;13.53;6.37;;;;;;;24.29;100.00;96782.75;5091968;28;20197;-78
2021/09/15 07:54:19;;;;;;;19.77;6.33;;;;;;;24.41;100.00;96785.47;5091949;28;20286;-79
2021/09/15 07:56:47;;;;;;;11.33;6.80;;;;;;;24.83;100.00;96782.63;5092519;28;20208;-79
2021/09/15 07:59:14;;;;;;;15.10;7.30;;;;;;;24.97;100.00;96778.63;5092366;28;20250;-79
2021/09/15 08:01:41;;;;;;;12.30;6.90;;;;;;;25.14;100.00;96779.53;5091956;28;20696;-79
2021/09/15 08:04:08;;;;;;;5.73;5.20;;;;;;;24.97;100.00;96783.19;5092125;28;20235;-79
2021/09/15 08:06:35;;;;;;;9.20;6.20;;;;;;;25.46;100.00;96783.63;5092352;28;20218;-79
2021/09/15 08:09:03;;;;;;;7.67;6.17;;;;;;;25.63;100.00;96781.81;5092130;28;20579;-79
2021/09/15 08:11:32;;;;;;;7.43;5.33;;;;;;;25.75;100.00;96781.75;5091869;28;20647;-79
2021/09/15 08:13:59;;;;;;;6.67;6.17;;;;;;;26.25;100.00;96784.50;5092113;28;20647;-79
2021/09/15 08:16:27;;;;;;;7.03;6.43;;;;;;;26.27;100.00;96776.19;5091911;28;20288;-79
2021/09/15 08:18:54;;;;;;;8.23;5.93;;;;;;;26.13;100.00;96780.28;5092064;28;20196;-79
2021/09/15 08:21:21;;;;;;;8.87;5.33;;;;;;;26.35;100.00;96780.34;5091905;28;20223;-79
2021/09/15 08:23:49;;;;;;;6.93;6.30;;;;;;;26.67;100.00;96789.50;5091492;28;20200;-79
2021/09/15 08:26:17;;;;;;;6.23;5.63;;;;;;;27.33;100.00;96786.84;5092000;28;20279;-79
2021/09/15 08:28:47;;;;;;;16.50;6.80;;;;;;;27.53;100.00;96782.72;5091799;28;20269;-79
2021/09/15 08:31:14;;;;;;;6.67;6.07;;;;;;;27.58;100.00;96780.91;5091552;28;20240;-79
2021/09/15 08:33:41;;;;;;;6.15;5.32;;;;;;;27.04;100.00;96770.00;5091199;28;20192;-79
2021/09/15 08:36:08;;;;;;;8.75;6.63;;;;;;;26.36;100.00;96773.88;5091676;28;20196;-79
2021/09/15 08:38:36;;;;;;;6.90;6.10;;;;;;;26.11;100.00;96763.53;5091440;28;20192;-79
2021/09/15 08:41:03;;;;;;;8.23;6.20;;;;;;;26.05;100.00;96768.84;5091468;28;20202;-79
2021/09/15 08:43:33;;;;;;;7.03;5.40;;;;;;;26.22;100.00;96773.41;5095005;28;20578;-79
2021/09/15 08:46:05;;;;;;;8.93;5.60;;;;;;;26.04;100.00;96777.97;5095467;28;20246;-79
2021/09/15 08:48:38;;;;;;;9.70;6.00;;;;;;;25.83;100.00;96782.19;5095188;28;20191;-79
2021/09/15 08:51:06;;;;;;;11.63;6.35;;;;;;;25.71;100.00;96781.44;5095658;28;20571;-79
2021/09/15 08:53:33;;;;;;;6.50;5.88;;;;;;;25.30;100.00;96783.38;5094870;28;20203;-79
2021/09/15 08:56:00;;;;;;;7.30;6.30;;;;;;;25.41;100.00;96770.91;5095258;28;20198;-79
2021/09/15 08:58:27;;;;;;;10.00;6.17;;;;;;;25.57;100.00;96775.53;5095010;28;20200;-79
2021/09/15 09:01:09;;;;;;;5.38;4.97;;;;;;;26.33;100.00;96780.59;5095186;28;20625;-79
2021/09/15 09:03:37;;;;;;;8.38;5.82;;;;;;;26.78;100.00;96777.78;5094716;28;20227;-79
2021/09/15 09:06:12;;;;;;;10.20;5.70;;;;;;;26.82;100.00;96779.97;5095359;28;20218;-80
2021/09/15 09:08:41;;;;;;;6.38;5.82;;;;;;;27.12;100.00;96777.69;5095149;28;20632;-79
2021/09/15 09:11:08;;;;;;;7.78;6.30;;;;;;;26.79;100.00;96773.19;5094790;28;20208;-79
2021/09/15 09:13:46;;;;;;;7.90;6.38;;;;;;;26.94;100.00;96775.25;5095136;28;20215;-80
2021/09/15 09:16:15;;;;;;;6.43;5.82;;;;;;;27.72;100.00;96768.63;5095084;28;20184;-80
2021/09/15 09:18:56;;;;;;;6.75;6.00;;;;;;;27.78;100.00;96769.53;5094868;28;20188;-79
2021/09/15 09:21:29;;;;;;;8.80;6.38;;;;;;;27.08;100.00;96768.41;5095290;28;20207;-80
2021/09/15 09:23:57;;;;;;;6.97;6.30;;;;;;;26.80;100.00;96766.72;5094495;28;20287;-80
2021/09/15 09:26:25;;;;;;;7.90;7.10;;;;;;;27.48;100.00;96770.00;5094881;28;20211;-79
2021/09/15 09:28:52;;;;;;;7.38;6.78;;;;;;;28.40;100.00;96755.47;5094634;28;20204;-80
2021/09/15 09:31:21;;;;;;;8.40;6.82;;;;;;;28.86;100.00;96761.13;5094363;28;20232;-79
2021/09/15 09:33:48;;;;;;;8.02;7.30;;;;;;;28.81;100.00;96760.25;5094842;28;20278;-80
2021/09/15 09:36:15;;;;;;;9.93;7.15;;;;;;;28.65;100.00;96757.50;5094600;28;20196;-80
2021/09/15 09:38:44;;;;;;;8.65;6.97;;;;;;;29.18;100.00;96753.97;5094604;28;20200;-80
2021/09/15 09:41:13;;;;;;;7.20;6.20;;;;;;;29.89;100.00;96759.53;5094484;28;20683;-80
2021/09/15 09:43:42;;;;;;;11.10;6.03;;;;;;;29.27;100.00;96747.78;5094438;28;20327;-80
2021/09/15 09:46:11;;;;;;;10.93;7.00;;;;;;;29.23;100.00;96751.25;5094506;28;20283;-80
2021/09/15 09:48:42;;;;;;;5.85;5.30;;;;;;;28.99;100.00;96743.59;5094097;28;20230;-80
2021/09/15 09:51:28;;;;;;;6.75;6.13;;;;;;;27.43;100.00;96734.84;5094322;28;20189;-80
2021/09/15 09:54:13;;;;;;;6.00;5.50;;;;;;;27.31;100.00;96742.28;5093159;28;20698;-80
2021/09/15 09:56:42;;;;;;;6.53;5.68;;;;;;;28.40;100.00;96733.00;5094338;28;20208;-80
2021/09/15 09:59:09;;;;;;;7.75;6.10;;;;;;;27.85;100.00;96742.28;5094334;28;20192;-80
2021/09/15 10:01:40;;;;;;;14.90;6.68;;;;;;;28.01;100.00;96733.22;5093994;28;20195;-80
2021/09/15 10:04:09;;;;;;;7.78;6.28;;;;;;;27.54;100.00;96742.00;5094313;28;20610;-80
2021/09/15 10:06:38;;;;;;;10.27;6.07;;;;;;;27.70;100.00;96732.94;5094383;28;20196;-80
2021/09/15 10:09:07;;;;;;;6.20;5.70;;;;;;;27.11;100.00;96732.84;5094074;28;20211;-80
2021/09/15 10:11:35;;;;;;;7.88;7.07;;;;;;;27.04;100.00;96732.22;5093650;28;20232;-80
2021/09/15 10:14:04;;;;;;;6.95;6.35;;;;;;;26.48;100.00;96740.41;5094050;28;20204;-80
2021/09/15 10:16:34;;;;;;;7.68;5.93;;;;;;;26.03;100.00;96730.56;5088733;28;20223;-80
2021/09/15 10:19:06;;;;;;;9.95;6.15;;;;;;;25.93;100.00;96729.59;5079569;28;20201;-79
2021/09/15 10:21:37;;;;;;;8.77;6.63;;;;;;;25.68;100.00;96738.03;5094000;28;20181;-80
2021/09/15 10:24:05;;;;;;;7.32;6.55;;;;;;;25.49;100.00;96740.91;5093431;28;20188;-79
2021/09/15 10:26:39;;;;;;;10.70;8.13;;;;;;;24.83;100.00;96697.41;5093739;28;20283;-80
2021/09/15 10:29:29;;;;;;;7.70;6.32;;;;;;;24.33;100.00;96679.16;5086711;28;20621;-79
2021/09/15 10:32:14;;;;;;;6.00;5.50;;;;;;;23.70;100.00;96672.63;5073546;28;20265;-79
2021/09/15 10:35:02;;;;;;;6.40;5.80;;;;;;;23.63;100.00;96666.53;5073035;28;20193;-79
2021/09/15 10:37:52;;;;;;;6.97;6.23;;;;;;;23.42;100.00;96659.84;5072950;28;20193;-79
2021/09/15 10:40:39;;;;;;;6.97;6.37;;;;;;;23.35;100.00;96651.09;5072963;28;20595;-79
2021/09/15 10:43:53;;;;;;;7.17;6.37;;;;;;;23.49;100.00;96647.16;5072699;28;20584;-79
2021/09/15 10:46:27;;;;;;;6.93;6.33;;;;;;;23.58;100.00;96644.94;5072888;28;20185;-79
2021/09/15 10:49:20;;;;;;;7.13;6.43;;;;;;;23.76;100.00;96619.88;5072396;28;20189;-79
2021/09/15 10:51:48;;;;;;;7.17;6.47;;;;;;;24.13;100.00;96617.75;5072834;28;20272;-79
2021/09/15 10:54:42;;;;;;;7.67;6.87;;;;;;;24.90;100.00;96625.53;5072444;28;20581;-79
2021/09/15 10:57:12;;;;;;;8.47;6.70;;;;;;;25.93;100.00;96603.00;5072901;28;20193;-79
2021/09/15 10:59:54;;;;;;;8.63;6.77;;;;;;;26.79;100.00;96616.78;5072302;28;20197;-79
2021/09/15 11:02:29;;;;;;;6.73;5.53;;;;;;;26.88;100.00;96647.63;5072763;28;20676;-79
2021/09/15 11:04:57;;;;;;;7.60;6.60;;;;;;;27.07;100.00;96679.66;5072771;28;20184;-79
2021/09/15 11:07:58;;;;;;;7.10;6.18;;;;;;;27.63;100.00;96654.03;5072705;28;20197;-79
2021/09/15 11:10:38;;;;;;;7.40;5.55;;;;;;;27.85;100.00;96682.84;5072110;28;20204;-79
2021/09/15 11:13:07;;;;;;;6.38;5.78;;;;;;;27.99;100.00;96684.06;5072437;28;20189;-79
2021/09/15 11:15:35;;;;;;;6.25;5.75;;;;;;;27.74;100.00;96673.81;5072468;28;20288;-79
2021/09/15 11:18:03;;;;;;;9.52;6.40;;;;;;;27.83;100.00;96668.81;5072144;28;20580;-79
2021/09/15 11:20:33;;;;;;;7.13;6.53;;;;;;;28.35;100.00;96666.16;5072290;28;20219;-79
2021/09/15 11:23:04;;;;;;;6.93;6.32;;;;;;;28.26;100.00;96661.50;5071748;28;20308;-79
2021/09/15 11:25:31;;;;;;;7.13;6.53;;;;;;;27.73;100.00;96664.09;5072370;28;20662;-79
2021/09/15 11:28:11;;;;;;;8.45;6.50;;;;;;;27.71;100.00;96660.84;5077954;28;20232;-79
2021/09/15 11:30:40;;;;;;;8.45;6.20;;;;;;;27.27;100.00;96659.13;5072022;28;20688;-79
2021/09/15 11:33:08;;;;;;;7.15;5.63;;;;;;;26.29;100.00;96661.72;5071955;28;20208;-79
2021/09/15 11:35:40;;;;;;;6.18;5.57;;;;;;;25.87;100.00;96655.97;5072462;28;20197;-79